sensor_id;sensor_type;location;lat;lon;timestamp;temperature;humidity
15013;DHT22;7603;49.432;11.418;2023-09-19T00:00:19;16.20;99.90
15013;DHT22;7603;49.432;11.418;2023-09-19T00:02:56;16.20;99.90
15013;DHT22;7603;49.432;11.418;2023-09-19T00:05:23;16.20;99.90
15013;DHT22;7603;49.432;11.418;2023-09-19T00:07:50;16.20;99.90
15013;DHT22;7603;49.432;11.418;2023-09-19T00:10:19;16.20;99.90
15013;DHT22;7603;49.432;11.418;2023-09-19T00:12:45;16.20;99.90
15013;DHT22;7603;49.432;11.418;2023-09-19T00:15:11;16.20;99.90
15013;DHT22;7603;49.432;11.418;2023-09-19T00:17:37;16.20;99.90
15013;DHT22;7603;49.432;11.418;2023-09-19T00:20:03;16.10;99.90
15013;DHT22;7603;49.432;11.418;2023-09-19T00:22:40;16.10;99.90
15013;DHT22;7603;49.432;11.418;2023-09-19T00:25:07;16.00;99.90
15013;DHT22;7603;49.432;11.418;2023-09-19T00:27:32;16.00;99.90
15013;DHT22;7603;49.432;11.418;2023-09-19T00:29:59;15.90;99.90
15013;DHT22;7603;49.432;11.418;2023-09-19T00:32:25;15.80;99.90
15013;DHT22;7603;49.432;11.418;2023-09-19T00:34:56;15.80;99.90
15013;DHT22;7603;49.432;11.418;2023-09-19T00:37:22;15.80;99.90
15013;DHT22;7603;49.432;11.418;2023-09-19T00:39:47;15.70;99.90
15013;DHT22;7603;49.432;11.418;2023-09-19T00:42:20;15.70;99.90
15013;DHT22;7603;49.432;11.418;2023-09-19T00:44:47;15.60;99.90
15013;DHT22;7603;49.432;11.418;2023-09-19T00:47:13;15.60;99.90
15013;DHT22;7603;49.432;11.418;2023-09-19T00:49:44;15.50;99.90
15013;DHT22;7603;49.432;11.418;2023-09-19T00:52:11;15.50;99.90
15013;DHT22;7603;49.432;11.418;2023-09-19T00:54:37;15.50;99.90
15013;DHT22;7603;49.432;11.418;2023-09-19T00:57:03;15.40;99.90
15013;DHT22;7603;49.432;11.418;2023-09-19T00:59:54;15.30;99.90
15013;DHT22;7603;49.432;11.418;2023-09-19T01:02:20;15.30;99.90
15013;DHT22;7603;49.432;11.418;2023-09-19T01:04:47;15.10;99.90
15013;DHT22;7603;49.432;11.418;2023-09-19T01:07:13;15.10;99.90
15013;DHT22;7603;49.432;11.418;2023-09-19T01:09:41;15.10;99.90
15013;DHT22;7603;49.432;11.418;2023-09-19T01:12:07;15.10;99.90
15013;DHT22;7603;49.432;11.418;2023-09-19T01:14:42;15.10;99.90
15013;DHT22;7603;49.432;11.418;2023-09-19T01:25:32;15.30;99.90
15013;DHT22;7603;49.432;11.418;2023-09-19T01:28:30;15.30;99.90
15013;DHT22;7603;49.432;11.418;2023-09-19T01:30:58;15.30;99.90
15013;DHT22;7603;49.432;11.418;2023-09-19T01:33:27;15.30;99.90
15013;DHT22;7603;49.432;11.418;2023-09-19T01:35:53;15.30;99.90
15013;DHT22;7603;49.432;11.418;2023-09-19T01:38:23;15.30;99.90
15013;DHT22;7603;49.432;11.418;2023-09-19T01:40:59;15.40;99.90
15013;DHT22;7603;49.432;11.418;2023-09-19T01:43:39;15.40;99.90
15013;DHT22;7603;49.432;11.418;2023-09-19T01:46:25;15.40;99.90
15013;DHT22;7603;49.432;11.418;2023-09-19T01:51:44;15.40;99.90
15013;DHT22;7603;49.432;11.418;2023-09-19T01:54:12;15.40;99.90
15013;DHT22;7603;49.432;11.418;2023-09-19T01:56:53;15.40;99.90
15013;DHT22;7603;49.432;11.418;2023-09-19T01:59:27;15.40;99.90
15013;DHT22;7603;49.432;11.418;2023-09-19T02:01:54;15.40;99.90
15013;DHT22;7603;49.432;11.418;2023-09-19T02:04:20;15.40;99.90
15013;DHT22;7603;49.432;11.418;2023-09-19T02:06:46;15.40;99.90
15013;DHT22;7603;49.432;11.418;2023-09-19T02:09:15;15.40;99.90
15013;DHT22;7603;49.432;11.418;2023-09-19T02:11:40;15.40;99.90
15013;DHT22;7603;49.432;11.418;2023-09-19T02:14:07;15.40;99.90
15013;DHT22;7603;49.432;11.418;2023-09-19T02:16:34;15.40;99.90
15013;DHT22;7603;49.432;11.418;2023-09-19T02:19:00;15.40;99.90
15013;DHT22;7603;49.432;11.418;2023-09-19T02:21:26;15.40;99.90
15013;DHT22;7603;49.432;11.418;2023-09-19T02:23:55;15.40;99.90
15013;DHT22;7603;49.432;11.418;2023-09-19T02:26:21;15.50;99.90
15013;DHT22;7603;49.432;11.418;2023-09-19T02:28:47;15.50;99.90
15013;DHT22;7603;49.432;11.418;2023-09-19T02:31:13;15.50;99.90
15013;DHT22;7603;49.432;11.418;2023-09-19T02:33:38;15.50;99.90
15013;DHT22;7603;49.432;11.418;2023-09-19T02:36:04;15.50;99.90
15013;DHT22;7603;49.432;11.418;2023-09-19T02:38:30;15.50;99.90
15013;DHT22;7603;49.432;11.418;2023-09-19T02:40:56;15.50;99.90
15013;DHT22;7603;49.432;11.418;2023-09-19T02:43:22;15.50;99.90
15013;DHT22;7603;49.432;11.418;2023-09-19T02:45:49;15.60;99.90
15013;DHT22;7603;49.432;11.418;2023-09-19T02:48:21;15.60;99.90
15013;DHT22;7603;49.432;11.418;2023-09-19T02:50:50;15.60;99.90
15013;DHT22;7603;49.432;11.418;2023-09-19T02:53:16;15.60;99.90
15013;DHT22;7603;49.432;11.418;2023-09-19T02:55:41;15.60;99.90
15013;DHT22;7603;49.432;11.418;2023-09-19T02:58:08;15.60;99.90
15013;DHT22;7603;49.432;11.418;2023-09-19T03:00:34;15.60;99.90
15013;DHT22;7603;49.432;11.418;2023-09-19T03:03:01;15.70;99.90
15013;DHT22;7603;49.432;11.418;2023-09-19T03:05:27;15.70;99.90
15013;DHT22;7603;49.432;11.418;2023-09-19T03:07:56;15.70;99.90
15013;DHT22;7603;49.432;11.418;2023-09-19T03:10:22;15.80;99.90
15013;DHT22;7603;49.432;11.418;2023-09-19T03:12:50;15.80;99.90
15013;DHT22;7603;49.432;11.418;2023-09-19T03:15:15;15.90;99.90
15013;DHT22;7603;49.432;11.418;2023-09-19T03:17:46;15.90;99.90
15013;DHT22;7603;49.432;11.418;2023-09-19T03:20:13;16.00;99.90
15013;DHT22;7603;49.432;11.418;2023-09-19T03:22:41;16.00;99.90
15013;DHT22;7603;49.432;11.418;2023-09-19T03:25:07;16.10;99.90
15013;DHT22;7603;49.432;11.418;2023-09-19T03:27:36;16.10;99.90
15013;DHT22;7603;49.432;11.418;2023-09-19T03:30:03;16.20;99.90
15013;DHT22;7603;49.432;11.418;2023-09-19T03:32:33;16.20;99.90
15013;DHT22;7603;49.432;11.418;2023-09-19T03:35:00;16.20;99.90
15013;DHT22;7603;49.432;11.418;2023-09-19T03:37:25;16.20;99.90
15013;DHT22;7603;49.432;11.418;2023-09-19T03:39:51;16.20;99.90
15013;DHT22;7603;49.432;11.418;2023-09-19T03:42:17;16.20;99.90
15013;DHT22;7603;49.432;11.418;2023-09-19T03:44:43;16.20;99.90
15013;DHT22;7603;49.432;11.418;2023-09-19T03:47:08;16.10;99.90
15013;DHT22;7603;49.432;11.418;2023-09-19T03:49:34;16.10;99.90
15013;DHT22;7603;49.432;11.418;2023-09-19T03:51:59;16.00;99.90
15013;DHT22;7603;49.432;11.418;2023-09-19T03:54:25;16.00;99.90
15013;DHT22;7603;49.432;11.418;2023-09-19T03:56:50;16.00;99.90
15013;DHT22;7603;49.432;11.418;2023-09-19T03:59:16;15.90;99.90
15013;DHT22;7603;49.432;11.418;2023-09-19T04:01:43;15.90;99.90
15013;DHT22;7603;49.432;11.418;2023-09-19T04:04:09;15.80;99.90
15013;DHT22;7603;49.432;11.418;2023-09-19T04:06:35;15.80;99.90
15013;DHT22;7603;49.432;11.418;2023-09-19T04:09:04;15.80;99.90
15013;DHT22;7603;49.432;11.418;2023-09-19T04:11:30;15.90;99.90
15013;DHT22;7603;49.432;11.418;2023-09-19T04:13:56;15.90;99.90
15013;DHT22;7603;49.432;11.418;2023-09-19T04:16:24;15.90;99.90
15013;DHT22;7603;49.432;11.418;2023-09-19T04:18:50;15.90;99.90
15013;DHT22;7603;49.432;11.418;2023-09-19T04:21:15;15.90;99.90
15013;DHT22;7603;49.432;11.418;2023-09-19T04:23:41;16.00;99.90
15013;DHT22;7603;49.432;11.418;2023-09-19T04:26:08;15.90;99.90
15013;DHT22;7603;49.432;11.418;2023-09-19T04:28:33;16.00;99.90
15013;DHT22;7603;49.432;11.418;2023-09-19T04:31:00;15.90;99.90
15013;DHT22;7603;49.432;11.418;2023-09-19T04:33:26;15.90;99.90
15013;DHT22;7603;49.432;11.418;2023-09-19T04:35:55;15.90;99.90
15013;DHT22;7603;49.432;11.418;2023-09-19T04:38:21;15.80;99.90
15013;DHT22;7603;49.432;11.418;2023-09-19T04:40:47;15.80;99.90
15013;DHT22;7603;49.432;11.418;2023-09-19T04:43:13;15.90;99.90
15013;DHT22;7603;49.432;11.418;2023-09-19T04:45:39;15.90;99.90
15013;DHT22;7603;49.432;11.418;2023-09-19T04:48:05;15.90;99.90
15013;DHT22;7603;49.432;11.418;2023-09-19T04:50:34;15.90;99.90
15013;DHT22;7603;49.432;11.418;2023-09-19T04:53:00;15.90;99.90
15013;DHT22;7603;49.432;11.418;2023-09-19T04:55:26;15.90;99.90
15013;DHT22;7603;49.432;11.418;2023-09-19T04:57:53;15.90;99.90
15013;DHT22;7603;49.432;11.418;2023-09-19T05:00:23;15.90;99.90
15013;DHT22;7603;49.432;11.418;2023-09-19T05:02:56;16.00;99.90
15013;DHT22;7603;49.432;11.418;2023-09-19T05:05:22;16.00;99.90
15013;DHT22;7603;49.432;11.418;2023-09-19T05:07:49;16.00;99.90
15013;DHT22;7603;49.432;11.418;2023-09-19T05:10:15;16.00;99.90
15013;DHT22;7603;49.432;11.418;2023-09-19T05:12:41;16.00;99.90
15013;DHT22;7603;49.432;11.418;2023-09-19T05:15:09;16.00;99.90
15013;DHT22;7603;49.432;11.418;2023-09-19T05:17:35;16.00;99.90
15013;DHT22;7603;49.432;11.418;2023-09-19T05:20:02;16.00;99.90
15013;DHT22;7603;49.432;11.418;2023-09-19T05:22:41;16.00;99.90
15013;DHT22;7603;49.432;11.418;2023-09-19T05:25:07;16.00;99.90
15013;DHT22;7603;49.432;11.418;2023-09-19T05:27:33;16.00;99.90
15013;DHT22;7603;49.432;11.418;2023-09-19T05:29:59;16.00;99.90
15013;DHT22;7603;49.432;11.418;2023-09-19T05:32:24;16.00;99.90
15013;DHT22;7603;49.432;11.418;2023-09-19T05:34:50;16.00;99.90
15013;DHT22;7603;49.432;11.418;2023-09-19T05:37:19;16.00;99.90
15013;DHT22;7603;49.432;11.418;2023-09-19T05:39:44;16.00;99.90
15013;DHT22;7603;49.432;11.418;2023-09-19T05:42:10;16.10;99.90
15013;DHT22;7603;49.432;11.418;2023-09-19T05:44:36;16.10;99.90
15013;DHT22;7603;49.432;11.418;2023-09-19T05:47:02;16.20;99.90
15013;DHT22;7603;49.432;11.418;2023-09-19T05:49:28;16.20;99.90
15013;DHT22;7603;49.432;11.418;2023-09-19T05:51:54;16.20;99.90
15013;DHT22;7603;49.432;11.418;2023-09-19T05:54:21;16.30;99.90
15013;DHT22;7603;49.432;11.418;2023-09-19T05:56:47;16.30;99.90
15013;DHT22;7603;49.432;11.418;2023-09-19T05:59:14;16.40;99.90
15013;DHT22;7603;49.432;11.418;2023-09-19T06:01:42;16.40;99.90
15013;DHT22;7603;49.432;11.418;2023-09-19T06:04:07;16.50;99.90
15013;DHT22;7603;49.432;11.418;2023-09-19T06:06:33;16.50;99.90
15013;DHT22;7603;49.432;11.418;2023-09-19T06:09:06;16.50;99.90
15013;DHT22;7603;49.432;11.418;2023-09-19T06:11:34;16.50;99.90
15013;DHT22;7603;49.432;11.418;2023-09-19T06:14:03;16.50;99.90
15013;DHT22;7603;49.432;11.418;2023-09-19T06:16:29;16.40;99.90
15013;DHT22;7603;49.432;11.418;2023-09-19T06:18:55;16.40;99.90
15013;DHT22;7603;49.432;11.418;2023-09-19T06:21:24;16.40;99.90
15013;DHT22;7603;49.432;11.418;2023-09-19T06:23:50;16.40;99.90
15013;DHT22;7603;49.432;11.418;2023-09-19T06:26:16;16.40;99.90
15013;DHT22;7603;49.432;11.418;2023-09-19T06:28:42;16.40;99.90
15013;DHT22;7603;49.432;11.418;2023-09-19T06:31:09;16.40;99.90
15013;DHT22;7603;49.432;11.418;2023-09-19T06:33:38;16.40;99.90
15013;DHT22;7603;49.432;11.418;2023-09-19T06:36:05;16.50;99.90
15013;DHT22;7603;49.432;11.418;2023-09-19T06:38:31;16.60;99.90
15013;DHT22;7603;49.432;11.418;2023-09-19T06:40:59;16.60;99.90
15013;DHT22;7603;49.432;11.418;2023-09-19T06:43:26;16.70;99.90
15013;DHT22;7603;49.432;11.418;2023-09-19T06:45:53;16.80;99.90
15013;DHT22;7603;49.432;11.418;2023-09-19T06:48:20;16.90;99.90
15013;DHT22;7603;49.432;11.418;2023-09-19T06:50:46;17.00;99.90
15013;DHT22;7603;49.432;11.418;2023-09-19T06:53:13;17.20;99.90
15013;DHT22;7603;49.432;11.418;2023-09-19T06:55:39;17.30;99.90
15013;DHT22;7603;49.432;11.418;2023-09-19T06:58:05;17.40;99.90
15013;DHT22;7603;49.432;11.418;2023-09-19T07:00:31;17.50;99.90
15013;DHT22;7603;49.432;11.418;2023-09-19T07:03:03;17.50;99.90
15013;DHT22;7603;49.432;11.418;2023-09-19T07:05:37;17.50;99.90
15013;DHT22;7603;49.432;11.418;2023-09-19T07:08:05;17.40;99.90
15013;DHT22;7603;49.432;11.418;2023-09-19T07:10:32;17.40;99.90
15013;DHT22;7603;49.432;11.418;2023-09-19T07:13:06;17.40;99.90
15013;DHT22;7603;49.432;11.418;2023-09-19T07:15:35;17.30;99.90
15013;DHT22;7603;49.432;11.418;2023-09-19T07:18:04;17.30;99.90
15013;DHT22;7603;49.432;11.418;2023-09-19T07:20:30;17.30;99.90
15013;DHT22;7603;49.432;11.418;2023-09-19T07:23:00;17.50;99.90
15013;DHT22;7603;49.432;11.418;2023-09-19T07:25:27;17.70;99.90
15013;DHT22;7603;49.432;11.418;2023-09-19T07:27:55;18.00;99.90
15013;DHT22;7603;49.432;11.418;2023-09-19T07:30:20;18.20;99.90
15013;DHT22;7603;49.432;11.418;2023-09-19T07:32:46;18.40;99.90
15013;DHT22;7603;49.432;11.418;2023-09-19T07:35:12;18.60;99.90
15013;DHT22;7603;49.432;11.418;2023-09-19T07:37:38;18.60;99.90
15013;DHT22;7603;49.432;11.418;2023-09-19T07:40:04;18.80;99.90
15013;DHT22;7603;49.432;11.418;2023-09-19T07:42:35;19.20;99.90
15013;DHT22;7603;49.432;11.418;2023-09-19T07:45:01;19.50;99.90
15013;DHT22;7603;49.432;11.418;2023-09-19T07:47:27;19.70;99.90
15013;DHT22;7603;49.432;11.418;2023-09-19T07:49:53;19.90;99.90
15013;DHT22;7603;49.432;11.418;2023-09-19T07:52:20;20.00;99.90
15013;DHT22;7603;49.432;11.418;2023-09-19T07:54:46;20.10;99.90
15013;DHT22;7603;49.432;11.418;2023-09-19T07:57:13;20.30;99.90
15013;DHT22;7603;49.432;11.418;2023-09-19T07:59:40;20.50;99.90
15013;DHT22;7603;49.432;11.418;2023-09-19T08:02:08;20.50;99.80
15013;DHT22;7603;49.432;11.418;2023-09-19T08:04:44;20.40;96.20
15013;DHT22;7603;49.432;11.418;2023-09-19T08:07:12;20.30;96.60
15013;DHT22;7603;49.432;11.418;2023-09-19T08:09:39;20.20;97.30
15013;DHT22;7603;49.432;11.418;2023-09-19T08:12:06;20.10;96.50
15013;DHT22;7603;49.432;11.418;2023-09-19T08:14:33;20.10;94.50
15013;DHT22;7603;49.432;11.418;2023-09-19T08:16:59;20.00;94.30
15013;DHT22;7603;49.432;11.418;2023-09-19T08:19:26;19.90;94.30
15013;DHT22;7603;49.432;11.418;2023-09-19T08:21:56;19.90;94.60
15013;DHT22;7603;49.432;11.418;2023-09-19T08:24:33;20.00;94.80
15013;DHT22;7603;49.432;11.418;2023-09-19T08:26:59;20.30;93.70
15013;DHT22;7603;49.432;11.418;2023-09-19T08:29:25;20.50;93.00
15013;DHT22;7603;49.432;11.418;2023-09-19T08:31:54;20.90;91.00
15013;DHT22;7603;49.432;11.418;2023-09-19T08:34:19;21.00;88.80
15013;DHT22;7603;49.432;11.418;2023-09-19T08:36:46;21.20;86.80
15013;DHT22;7603;49.432;11.418;2023-09-19T08:39:13;21.50;86.30
15013;DHT22;7603;49.432;11.418;2023-09-19T08:41:39;21.80;84.40
15013;DHT22;7603;49.432;11.418;2023-09-19T08:44:05;22.00;83.60
15013;DHT22;7603;49.432;11.418;2023-09-19T08:46:31;22.10;81.40
15013;DHT22;7603;49.432;11.418;2023-09-19T08:49:12;22.10;82.00
15013;DHT22;7603;49.432;11.418;2023-09-19T08:51:45;22.10;81.70
15013;DHT22;7603;49.432;11.418;2023-09-19T08:56:53;22.10;82.10
15013;DHT22;7603;49.432;11.418;2023-09-19T08:59:22;21.90;80.70
15013;DHT22;7603;49.432;11.418;2023-09-19T09:01:53;21.70;81.80
15013;DHT22;7603;49.432;11.418;2023-09-19T09:04:19;21.70;82.30
15013;DHT22;7603;49.432;11.418;2023-09-19T09:06:46;21.80;82.60
15013;DHT22;7603;49.432;11.418;2023-09-19T09:09:17;21.90;81.30
15013;DHT22;7603;49.432;11.418;2023-09-19T09:11:42;21.90;80.60
15013;DHT22;7603;49.432;11.418;2023-09-19T09:14:08;21.90;81.50
15013;DHT22;7603;49.432;11.418;2023-09-19T09:16:34;22.10;81.60
15013;DHT22;7603;49.432;11.418;2023-09-19T09:19:00;22.30;81.60
15013;DHT22;7603;49.432;11.418;2023-09-19T09:21:27;22.80;80.50
15013;DHT22;7603;49.432;11.418;2023-09-19T09:23:54;23.10;77.50
15013;DHT22;7603;49.432;11.418;2023-09-19T09:26:43;23.40;77.60
15013;DHT22;7603;49.432;11.418;2023-09-19T09:29:09;23.60;74.30
15013;DHT22;7603;49.432;11.418;2023-09-19T09:31:35;23.80;74.60
15013;DHT22;7603;49.432;11.418;2023-09-19T09:34:00;23.80;71.50
15013;DHT22;7603;49.432;11.418;2023-09-19T09:36:40;23.60;72.10
15013;DHT22;7603;49.432;11.418;2023-09-19T09:39:07;23.30;72.00
15013;DHT22;7603;49.432;11.418;2023-09-19T09:41:44;23.10;71.60
15013;DHT22;7603;49.432;11.418;2023-09-19T09:44:18;22.90;72.50
15013;DHT22;7603;49.432;11.418;2023-09-19T09:46:45;22.90;72.40
15013;DHT22;7603;49.432;11.418;2023-09-19T09:49:26;22.70;72.50
15013;DHT22;7603;49.432;11.418;2023-09-19T09:52:04;22.60;73.50
15013;DHT22;7603;49.432;11.418;2023-09-19T09:54:58;22.80;73.10
15013;DHT22;7603;49.432;11.418;2023-09-19T09:57:25;23.10;72.70
15013;DHT22;7603;49.432;11.418;2023-09-19T09:59:52;23.00;71.70
15013;DHT22;7603;49.432;11.418;2023-09-19T10:04:55;22.90;71.00
15013;DHT22;7603;49.432;11.418;2023-09-19T10:07:32;23.20;71.20
15013;DHT22;7603;49.432;11.418;2023-09-19T10:10:04;23.50;69.60
15013;DHT22;7603;49.432;11.418;2023-09-19T10:12:51;23.90;68.30
15013;DHT22;7603;49.432;11.418;2023-09-19T10:15:21;24.40;67.20
15013;DHT22;7603;49.432;11.418;2023-09-19T10:17:52;25.20;65.90
15013;DHT22;7603;49.432;11.418;2023-09-19T10:20:24;25.60;63.10
15013;DHT22;7603;49.432;11.418;2023-09-19T10:23:12;25.50;60.40
15013;DHT22;7603;49.432;11.418;2023-09-19T10:25:46;24.80;62.10
15013;DHT22;7603;49.432;11.418;2023-09-19T10:28:14;24.50;62.50
15013;DHT22;7603;49.432;11.418;2023-09-19T10:30:44;24.20;62.80
15013;DHT22;7603;49.432;11.418;2023-09-19T10:33:16;24.20;62.30
15013;DHT22;7603;49.432;11.418;2023-09-19T10:35:46;24.00;63.00
15013;DHT22;7603;49.432;11.418;2023-09-19T10:38:18;23.80;63.90
15013;DHT22;7603;49.432;11.418;2023-09-19T10:40:56;23.60;64.40
15013;DHT22;7603;49.432;11.418;2023-09-19T10:43:32;24.10;64.30
15013;DHT22;7603;49.432;11.418;2023-09-19T10:46:02;25.00;62.60
15013;DHT22;7603;49.432;11.418;2023-09-19T10:48:29;26.10;59.40
15013;DHT22;7603;49.432;11.418;2023-09-19T10:51:12;27.10;57.60
15013;DHT22;7603;49.432;11.418;2023-09-19T10:54:28;27.60;55.50
15013;DHT22;7603;49.432;11.418;2023-09-19T10:56:33;27.70;53.80
15013;DHT22;7603;49.432;11.418;2023-09-19T10:59:09;27.30;54.30
15013;DHT22;7603;49.432;11.418;2023-09-19T11:01:57;26.40;55.50
15013;DHT22;7603;49.432;11.418;2023-09-19T11:04:34;25.10;57.30
15013;DHT22;7603;49.432;11.418;2023-09-19T11:09:55;23.90;60.20
15013;DHT22;7603;49.432;11.418;2023-09-19T11:14:55;24.10;60.70
15013;DHT22;7603;49.432;11.418;2023-09-19T11:25:41;26.00;56.30
15013;DHT22;7603;49.432;11.418;2023-09-19T11:30:43;26.60;55.60
15013;DHT22;7603;49.432;11.418;2023-09-19T11:36:05;27.60;52.70
15013;DHT22;7603;49.432;11.418;2023-09-19T11:43:52;26.50;53.50
15013;DHT22;7603;49.432;11.418;2023-09-19T11:46:20;26.50;54.20
15013;DHT22;7603;49.432;11.418;2023-09-19T11:48:53;27.20;53.80
15013;DHT22;7603;49.432;11.418;2023-09-19T11:51:25;28.10;50.80
15013;DHT22;7603;49.432;11.418;2023-09-19T11:53:55;27.80;50.30
15013;DHT22;7603;49.432;11.418;2023-09-19T11:56:24;27.40;50.10
15013;DHT22;7603;49.432;11.418;2023-09-19T11:58:52;27.20;50.10
15013;DHT22;7603;49.432;11.418;2023-09-19T12:01:32;27.30;50.90
15013;DHT22;7603;49.432;11.418;2023-09-19T12:04:00;27.60;49.90
15013;DHT22;7603;49.432;11.418;2023-09-19T12:06:28;28.20;49.10
15013;DHT22;7603;49.432;11.418;2023-09-19T12:09:00;28.90;47.90
15013;DHT22;7603;49.432;11.418;2023-09-19T12:11:31;28.90;47.60
15013;DHT22;7603;49.432;11.418;2023-09-19T12:13:59;29.50;46.50
15013;DHT22;7603;49.432;11.418;2023-09-19T12:16:26;30.60;45.30
15013;DHT22;7603;49.432;11.418;2023-09-19T12:18:56;31.30;44.30
15013;DHT22;7603;49.432;11.418;2023-09-19T12:24:04;33.40;39.80
15013;DHT22;7603;49.432;11.418;2023-09-19T12:26:41;33.60;38.90
15013;DHT22;7603;49.432;11.418;2023-09-19T12:29:16;34.00;37.70
15013;DHT22;7603;49.432;11.418;2023-09-19T12:31:56;34.50;36.40
15013;DHT22;7603;49.432;11.418;2023-09-19T12:34:27;34.90;35.30
15013;DHT22;7603;49.432;11.418;2023-09-19T12:37:14;35.10;34.70
15013;DHT22;7603;49.432;11.418;2023-09-19T12:39:51;34.90;34.10
15013;DHT22;7603;49.432;11.418;2023-09-19T12:42:25;33.70;34.80
15013;DHT22;7603;49.432;11.418;2023-09-19T12:44:57;33.10;36.50
15013;DHT22;7603;49.432;11.418;2023-09-19T12:47:27;33.10;37.10
15013;DHT22;7603;49.432;11.418;2023-09-19T12:52:43;32.30;36.10
15013;DHT22;7603;49.432;11.418;2023-09-19T12:55:19;30.90;37.80
15013;DHT22;7603;49.432;11.418;2023-09-19T12:57:56;29.70;39.90
15013;DHT22;7603;49.432;11.418;2023-09-19T13:00:30;29.10;41.40
15013;DHT22;7603;49.432;11.418;2023-09-19T13:03:12;29.00;42.10
15013;DHT22;7603;49.432;11.418;2023-09-19T13:05:51;29.50;42.10
15013;DHT22;7603;49.432;11.418;2023-09-19T13:08:19;30.10;41.30
15013;DHT22;7603;49.432;11.418;2023-09-19T13:13:33;31.00;40.10
15013;DHT22;7603;49.432;11.418;2023-09-19T13:16:02;30.90;40.00
15013;DHT22;7603;49.432;11.418;2023-09-19T13:18:28;30.30;39.60
15013;DHT22;7603;49.432;11.418;2023-09-19T13:21:11;29.40;41.40
15013;DHT22;7603;49.432;11.418;2023-09-19T13:23:53;28.50;42.60
15013;DHT22;7603;49.432;11.418;2023-09-19T13:26:22;28.10;43.50
15013;DHT22;7603;49.432;11.418;2023-09-19T13:28:48;28.40;44.00
15013;DHT22;7603;49.432;11.418;2023-09-19T13:31:14;28.90;43.00
15013;DHT22;7603;49.432;11.418;2023-09-19T13:33:47;29.10;42.50
15013;DHT22;7603;49.432;11.418;2023-09-19T13:36:13;29.70;41.70
15013;DHT22;7603;49.432;11.418;2023-09-19T13:38:40;29.90;41.40
15013;DHT22;7603;49.432;11.418;2023-09-19T13:41:09;30.30;40.90
15013;DHT22;7603;49.432;11.418;2023-09-19T13:43:35;30.60;40.60
15013;DHT22;7603;49.432;11.418;2023-09-19T13:46:01;30.30;40.40
15013;DHT22;7603;49.432;11.418;2023-09-19T13:48:27;29.50;42.10
15013;DHT22;7603;49.432;11.418;2023-09-19T13:50:55;28.60;42.60
15013;DHT22;7603;49.432;11.418;2023-09-19T13:53:21;28.50;43.60
15013;DHT22;7603;49.432;11.418;2023-09-19T13:55:47;28.80;43.20
15013;DHT22;7603;49.432;11.418;2023-09-19T13:58:14;29.30;43.00
15013;DHT22;7603;49.432;11.418;2023-09-19T14:00:40;30.10;42.40
15013;DHT22;7603;49.432;11.418;2023-09-19T14:03:06;31.10;41.80
15013;DHT22;7603;49.432;11.418;2023-09-19T14:05:31;32.40;40.40
15013;DHT22;7603;49.432;11.418;2023-09-19T14:07:58;33.70;37.50
15013;DHT22;7603;49.432;11.418;2023-09-19T14:10:28;34.80;36.50
15013;DHT22;7603;49.432;11.418;2023-09-19T14:12:57;35.60;35.60
15013;DHT22;7603;49.432;11.418;2023-09-19T14:15:25;36.40;34.40
15013;DHT22;7603;49.432;11.418;2023-09-19T14:17:58;37.30;33.10
15013;DHT22;7603;49.432;11.418;2023-09-19T14:20:24;38.20;32.60
15013;DHT22;7603;49.432;11.418;2023-09-19T14:22:54;38.60;31.50
15013;DHT22;7603;49.432;11.418;2023-09-19T14:25:20;38.90;29.90
15013;DHT22;7603;49.432;11.418;2023-09-19T14:27:47;39.10;29.60
15013;DHT22;7603;49.432;11.418;2023-09-19T14:30:13;38.60;28.90
15013;DHT22;7603;49.432;11.418;2023-09-19T14:32:39;37.60;29.10
15013;DHT22;7603;49.432;11.418;2023-09-19T14:35:06;37.50;29.70
15013;DHT22;7603;49.432;11.418;2023-09-19T14:37:32;37.10;29.90
15013;DHT22;7603;49.432;11.418;2023-09-19T14:39:58;36.70;30.40
15013;DHT22;7603;49.432;11.418;2023-09-19T14:42:23;36.70;30.80
15013;DHT22;7603;49.432;11.418;2023-09-19T14:44:49;36.90;30.40
15013;DHT22;7603;49.432;11.418;2023-09-19T14:47:15;36.80;30.10
15013;DHT22;7603;49.432;11.418;2023-09-19T14:49:42;36.80;30.00
15013;DHT22;7603;49.432;11.418;2023-09-19T14:52:08;36.20;29.80
15013;DHT22;7603;49.432;11.418;2023-09-19T14:54:34;36.00;30.50
15013;DHT22;7603;49.432;11.418;2023-09-19T14:57:00;35.20;31.20
15013;DHT22;7603;49.432;11.418;2023-09-19T14:59:34;34.10;32.60
15013;DHT22;7603;49.432;11.418;2023-09-19T15:02:06;32.30;35.10
15013;DHT22;7603;49.432;11.418;2023-09-19T15:04:32;31.00;36.80
15013;DHT22;7603;49.432;11.418;2023-09-19T15:06:59;30.60;38.20
15013;DHT22;7603;49.432;11.418;2023-09-19T15:09:25;31.40;38.40
15013;DHT22;7603;49.432;11.418;2023-09-19T15:11:55;32.70;37.20
15013;DHT22;7603;49.432;11.418;2023-09-19T15:14:21;33.30;35.40
15013;DHT22;7603;49.432;11.418;2023-09-19T15:16:48;33.30;35.70
15013;DHT22;7603;49.432;11.418;2023-09-19T15:19:14;32.90;35.30
15013;DHT22;7603;49.432;11.418;2023-09-19T15:21:41;32.60;36.40
15013;DHT22;7603;49.432;11.418;2023-09-19T15:24:07;32.40;36.40
15013;DHT22;7603;49.432;11.418;2023-09-19T15:26:36;32.70;36.70
15013;DHT22;7603;49.432;11.418;2023-09-19T15:29:06;33.50;35.90
15013;DHT22;7603;49.432;11.418;2023-09-19T15:31:32;34.50;34.70
15013;DHT22;7603;49.432;11.418;2023-09-19T15:33:57;34.60;34.30
15013;DHT22;7603;49.432;11.418;2023-09-19T15:36:23;34.40;34.10
15013;DHT22;7603;49.432;11.418;2023-09-19T15:39:03;34.30;34.20
15013;DHT22;7603;49.432;11.418;2023-09-19T15:41:36;34.70;33.90
15013;DHT22;7603;49.432;11.418;2023-09-19T15:44:03;35.60;33.40
15013;DHT22;7603;49.432;11.418;2023-09-19T15:46:30;36.00;32.20
15013;DHT22;7603;49.432;11.418;2023-09-19T15:48:57;35.50;32.60
15013;DHT22;7603;49.432;11.418;2023-09-19T15:51:23;35.20;33.20
15013;DHT22;7603;49.432;11.418;2023-09-19T15:53:51;34.80;32.90
15013;DHT22;7603;49.432;11.418;2023-09-19T15:56:18;34.20;33.60
15013;DHT22;7603;49.432;11.418;2023-09-19T15:58:45;32.90;35.30
15013;DHT22;7603;49.432;11.418;2023-09-19T16:01:11;32.10;36.00
15013;DHT22;7603;49.432;11.418;2023-09-19T16:03:38;31.10;37.30
15013;DHT22;7603;49.432;11.418;2023-09-19T16:06:17;30.10;38.60
15013;DHT22;7603;49.432;11.418;2023-09-19T16:08:47;28.90;40.10
15013;DHT22;7603;49.432;11.418;2023-09-19T16:11:14;27.90;41.70
15013;DHT22;7603;49.432;11.418;2023-09-19T16:13:41;27.20;43.20
15013;DHT22;7603;49.432;11.418;2023-09-19T16:16:08;26.70;44.60
15013;DHT22;7603;49.432;11.418;2023-09-19T16:18:50;26.30;45.60
15013;DHT22;7603;49.432;11.418;2023-09-19T16:21:17;26.00;46.50
15013;DHT22;7603;49.432;11.418;2023-09-19T16:23:48;25.60;47.70
15013;DHT22;7603;49.432;11.418;2023-09-19T16:26:15;25.40;48.50
15013;DHT22;7603;49.432;11.418;2023-09-19T16:28:41;25.10;49.40